sensor_id;sensor_type;location;lat;lon;timestamp;temperature;humidity
21672;DHT22;10997;52.242;8.168;2023-02-28T00:00:45;-1.90;99.90
21672;DHT22;10997;52.242;8.168;2023-02-28T00:05:46;-1.90;99.90
21672;DHT22;10997;52.242;8.168;2023-02-28T00:10:46;-1.90;99.90
21672;DHT22;10997;52.242;8.168;2023-02-28T00:15:47;-2.00;99.90
21672;DHT22;10997;52.242;8.168;2023-02-28T00:20:48;-2.00;99.90
21672;DHT22;10997;52.242;8.168;2023-02-28T00:25:48;-2.00;99.90
21672;DHT22;10997;52.242;8.168;2023-02-28T00:30:50;-2.10;99.90
21672;DHT22;10997;52.242;8.168;2023-02-28T00:35:51;-2.20;99.90
21672;DHT22;10997;52.242;8.168;2023-02-28T00:40:51;-2.20;99.90
21672;DHT22;10997;52.242;8.168;2023-02-28T00:45:52;-2.20;99.90
21672;DHT22;10997;52.242;8.168;2023-02-28T00:50:53;-2.30;99.90
21672;DHT22;10997;52.242;8.168;2023-02-28T00:55:53;-2.40;99.90
21672;DHT22;10997;52.242;8.168;2023-02-28T01:00:54;-2.40;99.90
21672;DHT22;10997;52.242;8.168;2023-02-28T01:05:55;-2.50;99.90
21672;DHT22;10997;52.242;8.168;2023-02-28T01:10:56;-2.60;99.90
21672;DHT22;10997;52.242;8.168;2023-02-28T01:15:57;-2.70;99.90
21672;DHT22;10997;52.242;8.168;2023-02-28T01:20:57;-2.70;99.90
21672;DHT22;10997;52.242;8.168;2023-02-28T01:26:05;-2.60;99.90
21672;DHT22;10997;52.242;8.168;2023-02-28T01:31:06;-2.50;99.90
21672;DHT22;10997;52.242;8.168;2023-02-28T01:36:10;-2.50;99.90
21672;DHT22;10997;52.242;8.168;2023-02-28T01:41:17;-2.60;99.90
21672;DHT22;10997;52.242;8.168;2023-02-28T01:46:18;-2.60;99.90
21672;DHT22;10997;52.242;8.168;2023-02-28T01:56:37;-2.60;99.90
21672;DHT22;10997;52.242;8.168;2023-02-28T02:01:38;-2.60;99.90
21672;DHT22;10997;52.242;8.168;2023-02-28T02:06:43;-2.70;99.90
21672;DHT22;10997;52.242;8.168;2023-02-28T02:11:45;-2.70;99.90
21672;DHT22;10997;52.242;8.168;2023-02-28T02:43:25;-3.10;99.90
21672;DHT22;10997;52.242;8.168;2023-02-28T02:48:30;-3.10;99.90
21672;DHT22;10997;52.242;8.168;2023-02-28T02:53:36;-3.10;99.90
21672;DHT22;10997;52.242;8.168;2023-02-28T02:58:41;-3.20;99.90
21672;DHT22;10997;52.242;8.168;2023-02-28T03:03:43;-3.30;99.90
21672;DHT22;10997;52.242;8.168;2023-02-28T03:08:44;-3.30;99.90
21672;DHT22;10997;52.242;8.168;2023-02-28T03:35:12;-3.40;99.90
21672;DHT22;10997;52.242;8.168;2023-02-28T03:40:17;-3.50;99.90
21672;DHT22;10997;52.242;8.168;2023-02-28T03:45:21;-3.50;99.90
21672;DHT22;10997;52.242;8.168;2023-02-28T03:50:34;-3.60;99.90
21672;DHT22;10997;52.242;8.168;2023-02-28T03:55:43;-3.60;99.90
21672;DHT22;10997;52.242;8.168;2023-02-28T04:00:54;-3.70;99.90
21672;DHT22;10997;52.242;8.168;2023-02-28T04:05:57;-3.70;99.90
21672;DHT22;10997;52.242;8.168;2023-02-28T04:11:06;-3.80;99.90
21672;DHT22;10997;52.242;8.168;2023-02-28T04:16:13;-3.80;99.90
21672;DHT22;10997;52.242;8.168;2023-02-28T04:21:13;-3.80;99.90
21672;DHT22;10997;52.242;8.168;2023-02-28T04:26:14;-3.90;99.90
21672;DHT22;10997;52.242;8.168;2023-02-28T04:31:14;-3.80;99.90
21672;DHT22;10997;52.242;8.168;2023-02-28T04:36:15;-3.90;99.90
21672;DHT22;10997;52.242;8.168;2023-02-28T04:41:19;-3.90;99.90
21672;DHT22;10997;52.242;8.168;2023-02-28T04:46:20;-3.90;99.90
21672;DHT22;10997;52.242;8.168;2023-02-28T04:51:21;-4.00;99.90
21672;DHT22;10997;52.242;8.168;2023-02-28T04:56:22;-4.00;99.90
21672;DHT22;10997;52.242;8.168;2023-02-28T05:01:31;-4.10;99.90
21672;DHT22;10997;52.242;8.168;2023-02-28T05:06:34;-4.20;99.90
21672;DHT22;10997;52.242;8.168;2023-02-28T05:11:34;-4.20;99.90
21672;DHT22;10997;52.242;8.168;2023-02-28T05:16:35;-4.20;99.90
21672;DHT22;10997;52.242;8.168;2023-02-28T05:21:41;-4.20;99.90
21672;DHT22;10997;52.242;8.168;2023-02-28T05:26:50;-4.20;99.90
21672;DHT22;10997;52.242;8.168;2023-02-28T05:31:52;-4.10;99.90
21672;DHT22;10997;52.242;8.168;2023-02-28T05:36:52;-4.10;99.90
21672;DHT22;10997;52.242;8.168;2023-02-28T05:41:53;-4.20;99.90
21672;DHT22;10997;52.242;8.168;2023-02-28T05:46:53;-4.20;99.90
21672;DHT22;10997;52.242;8.168;2023-02-28T05:51:54;-4.10;99.90
21672;DHT22;10997;52.242;8.168;2023-02-28T05:56:54;-4.10;99.90
21672;DHT22;10997;52.242;8.168;2023-02-28T06:01:55;-4.10;99.90
21672;DHT22;10997;52.242;8.168;2023-02-28T06:06:55;-4.10;99.90
21672;DHT22;10997;52.242;8.168;2023-02-28T06:12:01;-4.20;99.90
21672;DHT22;10997;52.242;8.168;2023-02-28T06:17:04;-4.30;99.90
21672;DHT22;10997;52.242;8.168;2023-02-28T06:22:04;-4.30;99.90
21672;DHT22;10997;52.242;8.168;2023-02-28T06:27:05;-4.30;99.90
21672;DHT22;10997;52.242;8.168;2023-02-28T06:32:06;-4.30;99.90
21672;DHT22;10997;52.242;8.168;2023-02-28T06:37:06;-4.30;99.90
21672;DHT22;10997;52.242;8.168;2023-02-28T06:42:07;-4.30;99.90
21672;DHT22;10997;52.242;8.168;2023-02-28T06:47:10;-4.30;99.90
21672;DHT22;10997;52.242;8.168;2023-02-28T06:52:11;-4.30;99.90
21672;DHT22;10997;52.242;8.168;2023-02-28T06:57:11;-4.30;99.90
21672;DHT22;10997;52.242;8.168;2023-02-28T07:02:12;-4.20;99.90
21672;DHT22;10997;52.242;8.168;2023-02-28T07:07:12;-4.10;99.90
21672;DHT22;10997;52.242;8.168;2023-02-28T07:12:13;-4.00;99.90
21672;DHT22;10997;52.242;8.168;2023-02-28T07:17:13;-3.70;99.90
21672;DHT22;10997;52.242;8.168;2023-02-28T07:22:14;-3.50;99.90
21672;DHT22;10997;52.242;8.168;2023-02-28T07:27:15;-3.30;99.90
21672;DHT22;10997;52.242;8.168;2023-02-28T07:32:24;-3.10;99.90
21672;DHT22;10997;52.242;8.168;2023-02-28T07:37:24;-2.90;99.90
21672;DHT22;10997;52.242;8.168;2023-02-28T07:42:25;-2.70;99.90
21672;DHT22;10997;52.242;8.168;2023-02-28T07:47:26;-2.50;99.90
21672;DHT22;10997;52.242;8.168;2023-02-28T07:58:16;-2.10;99.90
21672;DHT22;10997;52.242;8.168;2023-02-28T08:03:18;-1.80;99.90
21672;DHT22;10997;52.242;8.168;2023-02-28T08:08:19;-1.60;99.90
21672;DHT22;10997;52.242;8.168;2023-02-28T08:13:20;-1.30;99.90
21672;DHT22;10997;52.242;8.168;2023-02-28T08:18:21;-1.10;99.90
21672;DHT22;10997;52.242;8.168;2023-02-28T08:23:22;-0.80;99.90
21672;DHT22;10997;52.242;8.168;2023-02-28T08:28:23;-0.50;99.90
21672;DHT22;10997;52.242;8.168;2023-02-28T08:33:24;-0.30;99.90
21672;DHT22;10997;52.242;8.168;2023-02-28T08:38:25;0.00;99.90
21672;DHT22;10997;52.242;8.168;2023-02-28T08:43:26;0.30;99.90
21672;DHT22;10997;52.242;8.168;2023-02-28T08:48:29;0.50;99.90
21672;DHT22;10997;52.242;8.168;2023-02-28T08:53:30;0.80;99.90
21672;DHT22;10997;52.242;8.168;2023-02-28T08:58:31;1.00;99.90
21672;DHT22;10997;52.242;8.168;2023-02-28T09:03:32;1.20;99.90
21672;DHT22;10997;52.242;8.168;2023-02-28T09:08:32;1.40;99.90
21672;DHT22;10997;52.242;8.168;2023-02-28T09:13:33;1.50;99.90
21672;DHT22;10997;52.242;8.168;2023-02-28T09:18:35;1.70;99.90
21672;DHT22;10997;52.242;8.168;2023-02-28T09:23:37;1.80;99.90
21672;DHT22;10997;52.242;8.168;2023-02-28T09:28:41;2.10;99.90
21672;DHT22;10997;52.242;8.168;2023-02-28T09:33:42;2.20;99.90
21672;DHT22;10997;52.242;8.168;2023-02-28T09:38:43;2.50;99.90
21672;DHT22;10997;52.242;8.168;2023-02-28T09:43:50;2.70;99.90
21672;DHT22;10997;52.242;8.168;2023-02-28T09:48:52;3.00;99.90
21672;DHT22;10997;52.242;8.168;2023-02-28T09:53:53;3.10;99.90
21672;DHT22;10997;52.242;8.168;2023-02-28T10:04:33;3.40;99.90
21672;DHT22;10997;52.242;8.168;2023-02-28T10:09:36;3.40;99.90
21672;DHT22;10997;52.242;8.168;2023-02-28T10:14:38;3.60;99.90
21672;DHT22;10997;52.242;8.168;2023-02-28T10:24:52;3.90;99.90
21672;DHT22;10997;52.242;8.168;2023-02-28T10:29:55;4.00;99.90
21672;DHT22;10997;52.242;8.168;2023-02-28T10:40:00;4.20;99.90
21672;DHT22;10997;52.242;8.168;2023-02-28T10:45:16;4.40;99.90
21672;DHT22;10997;52.242;8.168;2023-02-28T10:55:27;4.50;99.90
21672;DHT22;10997;52.242;8.168;2023-02-28T11:00:34;4.50;99.90
21672;DHT22;10997;52.242;8.168;2023-02-28T11:05:36;4.60;99.90
21672;DHT22;10997;52.242;8.168;2023-02-28T11:10:37;4.70;99.90
21672;DHT22;10997;52.242;8.168;2023-02-28T11:15:38;4.70;99.90
21672;DHT22;10997;52.242;8.168;2023-02-28T11:20:39;4.80;99.80
21672;DHT22;10997;52.242;8.168;2023-02-28T11:25:40;4.90;99.80
21672;DHT22;10997;52.242;8.168;2023-02-28T11:31:20;5.00;99.70
21672;DHT22;10997;52.242;8.168;2023-02-28T11:36:23;5.10;99.90
21672;DHT22;10997;52.242;8.168;2023-02-28T11:42:09;5.20;99.80
21672;DHT22;10997;52.242;8.168;2023-02-28T11:52:21;5.30;99.90
21672;DHT22;10997;52.242;8.168;2023-02-28T11:57:31;5.40;99.90
21672;DHT22;10997;52.242;8.168;2023-02-28T12:02:58;5.60;99.70
21672;DHT22;10997;52.242;8.168;2023-02-28T12:28:54;5.90;98.30
21672;DHT22;10997;52.242;8.168;2023-02-28T12:34:03;6.00;98.00
21672;DHT22;10997;52.242;8.168;2023-02-28T12:39:23;6.00;98.30
21672;DHT22;10997;52.242;8.168;2023-02-28T12:44:48;6.20;98.80
21672;DHT22;10997;52.242;8.168;2023-02-28T12:55:19;6.20;98.80
21672;DHT22;10997;52.242;8.168;2023-02-28T13:00:22;6.30;98.40
21672;DHT22;10997;52.242;8.168;2023-02-28T13:10:46;6.10;98.20
21672;DHT22;10997;52.242;8.168;2023-02-28T13:21:00;6.20;98.60
21672;DHT22;10997;52.242;8.168;2023-02-28T13:26:01;6.30;98.80
21672;DHT22;10997;52.242;8.168;2023-02-28T13:31:05;6.20;98.30
21672;DHT22;10997;52.242;8.168;2023-02-28T13:41:42;6.20;98.10
21672;DHT22;10997;52.242;8.168;2023-02-28T13:57:27;6.50;97.40
21672;DHT22;10997;52.242;8.168;2023-02-28T14:02:48;6.70;97.00
21672;DHT22;10997;52.242;8.168;2023-02-28T14:07:54;6.60;96.30
21672;DHT22;10997;52.242;8.168;2023-02-28T14:18:33;6.60;96.10
21672;DHT22;10997;52.242;8.168;2023-02-28T14:23:41;6.60;96.40
21672;DHT22;10997;52.242;8.168;2023-02-28T14:39:25;6.50;96.90
21672;DHT22;10997;52.242;8.168;2023-02-28T14:44:27;6.50;96.10
21672;DHT22;10997;52.242;8.168;2023-02-28T14:49:30;6.50;95.90
21672;DHT22;10997;52.242;8.168;2023-02-28T14:54:31;6.40;95.90
21672;DHT22;10997;52.242;8.168;2023-02-28T14:59:34;6.30;95.80
21672;DHT22;10997;52.242;8.168;2023-02-28T15:04:35;6.40;96.40
21672;DHT22;10997;52.242;8.168;2023-02-28T15:09:36;6.30;96.40
21672;DHT22;10997;52.242;8.168;2023-02-28T15:14:37;6.40;97.40
21672;DHT22;10997;52.242;8.168;2023-02-28T15:19:41;6.40;97.30
21672;DHT22;10997;52.242;8.168;2023-02-28T15:24:49;6.20;97.40
21672;DHT22;10997;52.242;8.168;2023-02-28T15:29:54;6.30;97.30
21672;DHT22;10997;52.242;8.168;2023-02-28T15:34:57;6.20;97.10
21672;DHT22;10997;52.242;8.168;2023-02-28T15:40:37;6.00;97.20
21672;DHT22;10997;52.242;8.168;2023-02-28T15:45:47;5.90;97.10
21672;DHT22;10997;52.242;8.168;2023-02-28T15:51:23;5.90;97.30
21672;DHT22;10997;52.242;8.168;2023-02-28T15:56:27;5.80;97.70
21672;DHT22;10997;52.242;8.168;2023-02-28T16:01:33;5.70;97.90
21672;DHT22;10997;52.242;8.168;2023-02-28T16:11:43;5.40;97.20
21672;DHT22;10997;52.242;8.168;2023-02-28T16:16:48;5.30;97.70
21672;DHT22;10997;52.242;8.168;2023-02-28T16:21:49;5.10;97.60
21672;DHT22;10997;52.242;8.168;2023-02-28T16:26:52;4.90;97.90
21672;DHT22;10997;52.242;8.168;2023-02-28T16:31:56;4.80;97.70
21672;DHT22;10997;52.242;8.168;2023-02-28T16:36:57;4.70;97.80
21672;DHT22;10997;52.242;8.168;2023-02-28T16:41:58;4.50;97.90
21672;DHT22;10997;52.242;8.168;2023-02-28T16:47:00;4.30;98.20
21672;DHT22;10997;52.242;8.168;2023-02-28T16:52:01;4.20;98.50
21672;DHT22;10997;52.242;8.168;2023-02-28T16:57:02;4.10;98.90
21672;DHT22;10997;52.242;8.168;2023-02-28T17:02:11;3.90;99.20
21672;DHT22;10997;52.242;8.168;2023-02-28T17:07:14;3.70;99.60
21672;DHT22;10997;52.242;8.168;2023-02-28T17:12:16;3.50;99.80
21672;DHT22;10997;52.242;8.168;2023-02-28T17:17:21;3.30;99.90
21672;DHT22;10997;52.242;8.168;2023-02-28T17:22:21;3.20;99.90
21672;DHT22;10997;52.242;8.168;2023-02-28T17:27:22;3.10;99.90
21672;DHT22;10997;52.242;8.168;2023-02-28T17:32:23;2.90;99.90
21672;DHT22;10997;52.242;8.168;2023-02-28T17:37:24;2.80;99.90
21672;DHT22;10997;52.242;8.168;2023-02-28T17:42:24;2.70;99.90
21672;DHT22;10997;52.242;8.168;2023-02-28T17:47:25;2.60;99.90
21672;DHT22;10997;52.242;8.168;2023-02-28T17:52:25;2.40;99.90
21672;DHT22;10997;52.242;8.168;2023-02-28T17:57:26;2.20;99.90
21672;DHT22;10997;52.242;8.168;2023-02-28T18:02:27;2.10;99.90
21672;DHT22;10997;52.242;8.168;2023-02-28T18:07:27;1.90;99.90
21672;DHT22;10997;52.242;8.168;2023-02-28T18:12:28;1.80;99.90
21672;DHT22;10997;52.242;8.168;2023-02-28T18:17:29;1.60;99.90
21672;DHT22;10997;52.242;8.168;2023-02-28T18:22:29;1.50;99.90
21672;DHT22;10997;52.242;8.168;2023-02-28T18:27:30;1.40;99.90
21672;DHT22;10997;52.242;8.168;2023-02-28T18:32:31;1.20;99.90
21672;DHT22;10997;52.242;8.168;2023-02-28T18:37:31;1.10;99.90
21672;DHT22;10997;52.242;8.168;2023-02-28T18:42:32;0.90;99.90
21672;DHT22;10997;52.242;8.168;2023-02-28T18:47:33;0.80;99.90
21672;DHT22;10997;52.242;8.168;2023-02-28T18:52:34;0.70;99.90
21672;DHT22;10997;52.242;8.168;2023-02-28T18:57:35;0.60;99.90
21672;DHT22;10997;52.242;8.168;2023-02-28T19:02:36;0.50;99.90
21672;DHT22;10997;52.242;8.168;2023-02-28T19:07:37;0.40;99.90
21672;DHT22;10997;52.242;8.168;2023-02-28T19:12:38;0.30;99.90
21672;DHT22;10997;52.242;8.168;2023-02-28T19:17:39;0.20;99.90
21672;DHT22;10997;52.242;8.168;2023-02-28T19:22:39;0.10;99.90
21672;DHT22;10997;52.242;8.168;2023-02-28T19:27:40;0.00;99.90
21672;DHT22;10997;52.242;8.168;2023-02-28T19:32:50;0.00;99.90
21672;DHT22;10997;52.242;8.168;2023-02-28T19:37:50;-0.10;99.90
21672;DHT22;10997;52.242;8.168;2023-02-28T19:42:52;-0.20;99.90
21672;DHT22;10997;52.242;8.168;2023-02-28T19:47:52;-0.30;99.90
21672;DHT22;10997;52.242;8.168;2023-02-28T19:58:46;-0.40;99.90
21672;DHT22;10997;52.242;8.168;2023-02-28T20:03:48;-0.50;99.90
21672;DHT22;10997;52.242;8.168;2023-02-28T20:08:49;-0.60;99.90
21672;DHT22;10997;52.242;8.168;2023-02-28T20:13:54;-0.60;99.90
21672;DHT22;10997;52.242;8.168;2023-02-28T20:18:56;-0.70;99.90
21672;DHT22;10997;52.242;8.168;2023-02-28T20:23:57;-0.70;99.90
21672;DHT22;10997;52.242;8.168;2023-02-28T20:28:57;-0.90;99.90
21672;DHT22;10997;52.242;8.168;2023-02-28T20:33:58;-1.00;99.90
21672;DHT22;10997;52.242;8.168;2023-02-28T20:38:59;-1.00;99.90
21672;DHT22;10997;52.242;8.168;2023-02-28T20:43:59;-0.90;99.90
21672;DHT22;10997;52.242;8.168;2023-02-28T20:49:03;-1.00;99.90
21672;DHT22;10997;52.242;8.168;2023-02-28T20:54:04;-1.10;99.90
21672;DHT22;10997;52.242;8.168;2023-02-28T20:59:05;-1.30;99.90
21672;DHT22;10997;52.242;8.168;2023-02-28T21:04:06;-1.30;99.90
21672;DHT22;10997;52.242;8.168;2023-02-28T21:09:08;-1.30;99.90
21672;DHT22;10997;52.242;8.168;2023-02-28T21:14:13;-1.30;99.90
21672;DHT22;10997;52.242;8.168;2023-02-28T21:19:14;-1.40;99.90
21672;DHT22;10997;52.242;8.168;2023-02-28T21:24:17;-1.40;99.90
21672;DHT22;10997;52.242;8.168;2023-02-28T21:29:18;-1.50;99.90
21672;DHT22;10997;52.242;8.168;2023-02-28T21:34:19;-1.50;99.90
21672;DHT22;10997;52.242;8.168;2023-02-28T21:39:22;-1.60;99.90
21672;DHT22;10997;52.242;8.168;2023-02-28T21:44:25;-1.70;99.90
21672;DHT22;10997;52.242;8.168;2023-02-28T21:49:27;-1.70;99.90
21672;DHT22;10997;52.242;8.168;2023-02-28T21:54:28;-1.70;99.90
21672;DHT22;10997;52.242;8.168;2023-02-28T21:59:29;-1.70;99.90
21672;DHT22;10997;52.242;8.168;2023-02-28T22:04:30;-1.80;99.90
21672;DHT22;10997;52.242;8.168;2023-02-28T22:09:31;-1.90;99.90
21672;DHT22;10997;52.242;8.168;2023-02-28T22:14:31;-1.90;99.90
21672;DHT22;10997;52.242;8.168;2023-02-28T22:19:32;-1.90;99.90
21672;DHT22;10997;52.242;8.168;2023-02-28T22:24:35;-1.90;99.90
21672;DHT22;10997;52.242;8.168;2023-02-28T22:29:35;-2.00;99.90
21672;DHT22;10997;52.242;8.168;2023-02-28T22:34:36;-2.00;99.90
21672;DHT22;10997;52.242;8.168;2023-02-28T22:39:37;-2.10;99.90
21672;DHT22;10997;52.242;8.168;2023-02-28T22:44:38;-2.20;99.90
21672;DHT22;10997;52.242;8.168;2023-02-28T22:49:40;-2.20;99.90
21672;DHT22;10997;52.242;8.168;2023-02-28T22:54:40;-2.20;99.90
21672;DHT22;10997;52.242;8.168;2023-02-28T22:59:41;-2.30;99.90
21672;DHT22;10997;52.242;8.168;2023-02-28T23:04:42;-2.30;99.90
21672;DHT22;10997;52.242;8.168;2023-02-28T23:09:42;-2.40;99.90
21672;DHT22;10997;52.242;8.168;2023-02-28T23:14:43;-2.50;99.90
21672;DHT22;10997;52.242;8.168;2023-02-28T23:19:43;-2.60;99.90
21672;DHT22;10997;52.242;8.168;2023-02-28T23:24:44;-2.60;99.90
21672;DHT22;10997;52.242;8.168;2023-02-28T23:29:45;-2.60;99.90
21672;DHT22;10997;52.242;8.168;2023-02-28T23:34:45;-2.60;99.90
21672;DHT22;10997;52.242;8.168;2023-02-28T23:39:46;-2.70;99.90
21672;DHT22;10997;52.242;8.168;2023-02-28T23:44:46;-2.70;99.90
21672;DHT22;10997;52.242;8.168;2023-02-28T23:49:47;-2.70;99.90
21672;DHT22;10997;52.242;8.168;2023-02-28T23:54:48;-2.80;99.90
21672;DHT22;10997;52.242;8.168;2023-02-28T23:59:48;-2.80;99.90
